Segundo Ensanche, Spain
Current Conditions -  °F | °C
As of 3:30 PM on Thursday 29 Jan 2015 (Local Time) from LEPP Reporting Station
Broken Clouds Broken Clouds  
Wind Chill: 46°   Ceiling: 4000
Heat Index: 48°   Visibility: 6mi
Dew Point: 39°   Wind: 5mph
Humidity: 71%   Direction: 20°NNE
Pressure: 29.65"   Gusts: NA
Location:  42.81°N, 1.64°W
Report Text: LEPP 291430Z 02004KT 330V050 9999 BKN040 09/04 Q1004
Loading
Personal Weather Stations






























Interactive Weather Map New forecast layout! Learn more

10-Day Weather Forecast

Advertisements
Track Severe Weather on mobile